createdAt,value
2023-01-19T00:01:30.862Z,99544.63
2023-01-19T00:03:58.647Z,99528.91
2023-01-19T00:06:26.610Z,99544.84
2023-01-19T00:08:54.389Z,99553.19
2023-01-19T00:11:22.077Z,99550.91
2023-01-19T00:13:50.936Z,99547.00
2023-01-19T00:16:23.126Z,99544.13
2023-01-19T00:18:52.496Z,99553.66
2023-01-19T00:21:21.732Z,99551.03
2023-01-19T00:23:51.208Z,99550.81
2023-01-19T00:26:22.087Z,99552.59
2023-01-19T00:28:50.817Z,99548.09
2023-01-19T00:31:21.574Z,99551.66
2023-01-19T00:33:51.456Z,99557.84
2023-01-19T00:36:19.627Z,99557.19
2023-01-19T00:38:47.321Z,99554.88
2023-01-19T00:41:15.100Z,99561.53
2023-01-19T00:43:42.814Z,99555.69
2023-01-19T00:46:10.725Z,99557.59
2023-01-19T00:48:39.832Z,99560.09
2023-01-19T00:51:07.545Z,99574.13
2023-01-19T00:53:35.243Z,99574.97
2023-01-19T00:56:02.877Z,99571.25
2023-01-19T00:58:30.610Z,99570.78
2023-01-19T01:01:03.573Z,99569.72
2023-01-19T01:03:31.604Z,99577.69
2023-01-19T01:06:00.661Z,99578.19
2023-01-19T01:08:28.384Z,99577.69
2023-01-19T01:10:56.316Z,99583.28
2023-01-19T01:13:27.286Z,99582.53
2023-01-19T01:15:56.724Z,99585.06
2023-01-19T01:18:24.748Z,99589.53
2023-01-19T01:20:54.504Z,99588.34
2023-01-19T01:23:24.352Z,99598.28
2023-01-19T01:25:52.087Z,99592.31
2023-01-19T01:28:19.777Z,99596.56
2023-01-19T01:30:47.533Z,99596.63
2023-01-19T01:33:15.396Z,99590.81
2023-01-19T01:36:03.195Z,99589.84
2023-01-19T01:38:32.246Z,99593.69
2023-01-19T01:41:00.135Z,99596.50
2023-01-19T01:43:43.924Z,99582.97
2023-01-19T01:46:15.384Z,99589.66
2023-01-19T01:48:47.591Z,99588.31
2023-01-19T01:51:27.661Z,99592.38
2023-01-19T01:54:17.735Z,99600.72
2023-01-19T01:56:48.327Z,99600.28
2023-01-19T01:59:25.839Z,99597.22
2023-01-19T02:02:12.944Z,99598.63
2023-01-19T02:04:44.111Z,99602.66
2023-01-19T02:07:33.627Z,99603.03
2023-01-19T02:10:20.257Z,99595.16
2023-01-19T02:13:06.098Z,99593.34
2023-01-19T02:15:34.152Z,99593.00
2023-01-19T02:18:02.020Z,99589.28
2023-01-19T02:20:32.705Z,99599.16
2023-01-19T02:23:06.497Z,99588.53
2023-01-19T02:25:35.779Z,99593.44
2023-01-19T02:28:05.079Z,99594.44
2023-01-19T02:30:33.890Z,99599.59
2023-01-19T02:33:02.095Z,99599.22
2023-01-19T02:35:31.792Z,99597.38
2023-01-19T02:38:00.323Z,99607.44
2023-01-19T02:40:29.129Z,99615.25
2023-01-19T02:43:00.911Z,99611.97
2023-01-19T02:45:29.062Z,99613.75
2023-01-19T02:47:57.123Z,99600.66
2023-01-19T02:50:43.790Z,99605.19
2023-01-19T02:53:37.671Z,99607.06
2023-01-19T02:56:23.335Z,99601.84
2023-01-19T02:58:59.455Z,99607.19
2023-01-19T03:01:36.834Z,99602.66
2023-01-19T03:04:12.616Z,99598.88
2023-01-19T03:06:47.421Z,99600.88
2023-01-19T03:09:23.150Z,99600.28
2023-01-19T03:11:57.177Z,99606.34
2023-01-19T03:14:30.519Z,99600.28
2023-01-19T03:17:03.552Z,99600.63
2023-01-19T03:19:37.340Z,99603.47
2023-01-19T03:22:10.257Z,99602.16
2023-01-19T03:24:41.854Z,99606.63
2023-01-19T03:27:14.877Z,99597.56
2023-01-19T03:29:51.895Z,99614.84
2023-01-19T03:32:23.440Z,99604.78
2023-01-19T03:34:53.849Z,99611.25
2023-01-19T03:37:24.138Z,99606.25
2023-01-19T03:39:51.945Z,99611.84
2023-01-19T03:42:21.358Z,99616.72
2023-01-19T03:44:51.307Z,99609.47
2023-01-19T03:47:21.104Z,99609.69
2023-01-19T03:49:50.729Z,99604.28
2023-01-19T03:52:18.549Z,99597.38
2023-01-19T03:54:46.309Z,99604.78
2023-01-19T03:57:13.999Z,99605.75
2023-01-19T03:59:41.807Z,99603.94
2023-01-19T04:02:11.007Z,99608.06
2023-01-19T04:04:38.735Z,99618.00
2023-01-19T04:07:06.951Z,99614.53
2023-01-19T04:09:34.624Z,99607.41
2023-01-19T04:12:03.674Z,99611.84
2023-01-19T04:14:31.478Z,99606.47
2023-01-19T04:16:59.174Z,99610.03
2023-01-19T04:19:28.222Z,99618.13
2023-01-19T04:21:56.900Z,99614.56
2023-01-19T04:24:24.681Z,99612.91
2023-01-19T04:26:52.833Z,99612.91
2023-01-19T04:29:20.538Z,99614.81
2023-01-19T04:31:48.231Z,99615.28
2023-01-19T04:34:15.991Z,99616.91
2023-01-19T04:36:45.384Z,99617.50
2023-01-19T04:39:13.055Z,99613.00
2023-01-19T04:41:41.896Z,99615.94
2023-01-19T04:44:09.918Z,99613.91
2023-01-19T04:46:37.562Z,99612.72
2023-01-19T04:49:05.279Z,99618.53
2023-01-19T04:51:34.362Z,99626.31
2023-01-19T04:54:04.018Z,99616.09
2023-01-19T04:56:31.742Z,99626.69
2023-01-19T04:58:59.482Z,99622.59
2023-01-19T05:01:27.592Z,99621.50
2023-01-19T05:03:55.358Z,99624.88
2023-01-19T05:06:23.089Z,99619.50
2023-01-19T05:08:50.810Z,99612.28
2023-01-19T05:11:19.943Z,99619.66
2023-01-19T05:13:48.188Z,99618.63
2023-01-19T05:16:16.534Z,99614.97
2023-01-19T05:18:44.371Z,99616.84
2023-01-19T05:21:12.082Z,99625.88
2023-01-19T05:23:39.786Z,99621.50
2023-01-19T05:26:09.491Z,99632.03
2023-01-19T05:28:38.924Z,99627.47
2023-01-19T05:31:06.836Z,99635.25
2023-01-19T05:33:34.719Z,99641.94
2023-01-19T05:36:02.531Z,99640.59
2023-01-19T05:38:35.296Z,99635.63
2023-01-19T05:41:03.696Z,99634.69
2023-01-19T05:43:31.419Z,99637.03
2023-01-19T05:46:00.595Z,99639.91
2023-01-19T05:48:28.230Z,99641.78
2023-01-19T05:50:58.918Z,99642.09
2023-01-19T05:53:27.143Z,99648.44
2023-01-19T05:55:55.188Z,99650.13
2023-01-19T05:58:22.830Z,99652.44
2023-01-19T06:00:50.585Z,99658.59
2023-01-19T06:03:19.686Z,99658.38
2023-01-19T06:05:47.444Z,99664.34
2023-01-19T06:08:15.272Z,99664.69
2023-01-19T06:10:43.092Z,99668.97
2023-01-19T06:13:11.226Z,99666.22
2023-01-19T06:15:38.933Z,99668.06
2023-01-19T06:18:06.847Z,99671.13
2023-01-19T06:20:36.718Z,99668.72
2023-01-19T06:23:04.787Z,99662.50
2023-01-19T06:25:32.447Z,99667.56
2023-01-19T06:28:00.224Z,99665.16
2023-01-19T06:30:29.073Z,99676.16
2023-01-19T06:32:56.870Z,99672.13
2023-01-19T06:35:24.657Z,99670.56
2023-01-19T06:37:53.822Z,99671.41
2023-01-19T06:40:21.539Z,99677.94
2023-01-19T06:42:49.793Z,99681.53
2023-01-19T06:45:17.532Z,99680.84
2023-01-19T06:47:47.954Z,99678.81
2023-01-19T06:50:16.061Z,99679.53
2023-01-19T06:52:43.787Z,99685.63
2023-01-19T06:55:14.542Z,99689.81
2023-01-19T06:57:42.186Z,99690.66
2023-01-19T07:00:11.768Z,99694.13
2023-01-19T07:02:43.417Z,99699.13
2023-01-19T07:05:14.290Z,99702.22
2023-01-19T07:07:43.204Z,99706.44
2023-01-19T07:10:13.055Z,99705.91
2023-01-19T07:12:40.894Z,99716.06
2023-01-19T07:15:11.692Z,99719.66
2023-01-19T07:17:39.425Z,99720.66
2023-01-19T07:20:08.783Z,99735.47
2023-01-19T07:22:36.524Z,99729.66
2023-01-19T07:25:04.744Z,99732.16
2023-01-19T07:27:37.196Z,99735.50
2023-01-19T07:30:05.565Z,99740.50
2023-01-19T07:32:33.347Z,99744.34
2023-01-19T07:35:00.996Z,99746.47
2023-01-19T07:37:28.850Z,99747.91
2023-01-19T07:39:56.561Z,99757.91
2023-01-19T07:42:24.355Z,99754.56
2023-01-19T07:44:53.567Z,99760.28
2023-01-19T07:47:21.376Z,99759.31
2023-01-19T07:49:49.120Z,99765.38
2023-01-19T07:52:16.800Z,99762.44
2023-01-19T07:54:44.531Z,99762.78
2023-01-19T07:57:12.255Z,99755.63
2023-01-19T07:59:39.992Z,99753.69
2023-01-19T08:02:10.490Z,99760.94
2023-01-19T08:04:38.256Z,99766.06
2023-01-19T08:07:06.037Z,99770.91
2023-01-19T08:09:33.707Z,99764.25
2023-01-19T08:12:01.619Z,99765.19
2023-01-19T08:14:29.286Z,99773.41
2023-01-19T08:17:00.362Z,99769.75
2023-01-19T08:19:29.464Z,99766.06
2023-01-19T08:21:58.842Z,99770.69
2023-01-19T08:24:28.650Z,99760.31
2023-01-19T08:27:00.309Z,99753.38
2023-01-19T08:29:30.695Z,99760.06
2023-01-19T08:32:00.077Z,99760.06
2023-01-19T08:34:31.499Z,99769.00
2023-01-19T08:36:59.967Z,99772.22
2023-01-19T08:39:27.841Z,99765.06
2023-01-19T08:41:55.894Z,99764.56
2023-01-19T08:44:23.776Z,99764.94
2023-01-19T08:46:51.460Z,99756.00
2023-01-19T08:49:19.232Z,99765.06
2023-01-19T08:51:49.115Z,99760.88
2023-01-19T08:54:18.537Z,99768.03
2023-01-19T08:56:46.494Z,99762.41
2023-01-19T08:59:14.371Z,99757.25
2023-01-19T09:01:42.377Z,99757.00
2023-01-19T09:04:10.213Z,99755.19
2023-01-19T09:06:38.132Z,99760.22
2023-01-19T09:09:07.226Z,99750.25
2023-01-19T09:11:36.325Z,99757.41
2023-01-19T09:14:05.663Z,99765.53
2023-01-19T09:16:33.343Z,99761.03
2023-01-19T09:19:01.284Z,99754.25
2023-01-19T09:21:29.390Z,99745.00
2023-01-19T09:23:57.772Z,99748.47
2023-01-19T09:26:27.111Z,99742.31
2023-01-19T09:28:54.846Z,99748.31
2023-01-19T09:31:22.707Z,99750.16
2023-01-19T09:33:50.513Z,99741.81
2023-01-19T09:36:18.299Z,99748.19
2023-01-19T09:38:46.116Z,99750.06
2023-01-19T09:41:20.160Z,99755.03
2023-01-19T09:43:54.104Z,99761.69
2023-01-19T09:46:25.728Z,99749.84
2023-01-19T09:48:56.519Z,99748.22
2023-01-19T09:51:26.628Z,99743.56
2023-01-19T09:54:04.147Z,99749.38
2023-01-19T09:56:32.843Z,99755.34
2023-01-19T09:59:02.526Z,99752.19
2023-01-19T10:01:47.585Z,99762.25
2023-01-19T10:04:30.589Z,99770.53
2023-01-19T10:07:07.719Z,99764.47
2023-01-19T10:09:46.541Z,99778.56
2023-01-19T10:12:23.365Z,99774.84
2023-01-19T10:15:01.723Z,99778.81
2023-01-19T10:17:40.472Z,99777.91
2023-01-19T10:20:16.036Z,99785.63
2023-01-19T10:22:51.578Z,99776.25
2023-01-19T10:25:23.680Z,99782.25
2023-01-19T10:27:51.467Z,99784.16
2023-01-19T10:30:24.442Z,99783.63
2023-01-19T10:32:52.886Z,99785.94
2023-01-19T10:35:24.595Z,99789.84
2023-01-19T10:37:54.059Z,99780.19
2023-01-19T10:40:30.901Z,99780.63
2023-01-19T10:42:59.669Z,99772.00
2023-01-19T10:45:31.620Z,99781.59
2023-01-19T10:48:06.503Z,99777.72
2023-01-19T10:50:37.163Z,99776.88
2023-01-19T10:53:06.756Z,99787.28
2023-01-19T10:55:37.966Z,99773.53
2023-01-19T10:58:07.583Z,99784.91
2023-01-19T11:00:39.322Z,99778.81
2023-01-19T11:03:24.192Z,99775.50
2023-01-19T11:05:52.518Z,99769.41
2023-01-19T11:08:24.634Z,99763.03
2023-01-19T11:10:58.936Z,99763.16
2023-01-19T11:13:26.657Z,99762.50
2023-01-19T11:15:58.501Z,99765.78
2023-01-19T11:18:34.866Z,99764.41
2023-01-19T11:21:06.418Z,99756.78
2023-01-19T11:23:42.170Z,99763.56
2023-01-19T11:26:15.795Z,99760.94
2023-01-19T11:28:48.499Z,99759.41
2023-01-19T11:31:32.204Z,99760.38
2023-01-19T11:34:01.267Z,99753.84
2023-01-19T11:36:30.886Z,99761.88
2023-01-19T11:39:00.667Z,99754.69
2023-01-19T11:41:30.559Z,99756.31
2023-01-19T11:44:01.263Z,99751.59
2023-01-19T11:46:36.216Z,99748.72
2023-01-19T11:49:09.101Z,99751.91
2023-01-19T11:51:45.013Z,99759.41
2023-01-19T11:54:20.915Z,99750.94
2023-01-19T11:56:49.556Z,99752.47
2023-01-19T11:59:17.373Z,99759.41
2023-01-19T12:01:50.561Z,99758.28
2023-01-19T12:04:22.758Z,99752.19
2023-01-19T12:06:53.880Z,99758.00
2023-01-19T12:09:24.646Z,99756.84
2023-01-19T12:12:01.675Z,99753.00
2023-01-19T12:14:36.233Z,99749.13
2023-01-19T12:17:08.579Z,99757.31
2023-01-19T12:19:44.171Z,99753.31
2023-01-19T12:22:16.545Z,99753.84
2023-01-19T12:24:50.035Z,99745.28
2023-01-19T12:27:28.139Z,99750.13
2023-01-19T12:29:56.358Z,99748.34
2023-01-19T12:32:35.041Z,99741.94
2023-01-19T12:35:02.888Z,99741.94
2023-01-19T12:37:38.114Z,99732.81
2023-01-19T12:40:21.223Z,99739.47
2023-01-19T12:42:56.881Z,99740.84
2023-01-19T12:45:26.882Z,99732.38
2023-01-19T12:47:57.576Z,99740.00
2023-01-19T12:50:29.640Z,99735.00
2023-01-19T12:52:59.754Z,99735.56
2023-01-19T12:55:31.090Z,99738.34
2023-01-19T12:58:02.672Z,99737.78
2023-01-19T13:00:37.416Z,99738.22
2023-01-19T13:03:42.067Z,99738.63
2023-01-19T13:06:09.816Z,99736.28
2023-01-19T13:09:01.343Z,99737.25
2023-01-19T13:11:34.094Z,99737.94
2023-01-19T13:14:34.516Z,99734.75
2023-01-19T13:17:21.684Z,99738.91
2023-01-19T13:19:56.049Z,99737.38
2023-01-19T13:22:52.806Z,99739.19
2023-01-19T13:25:30.933Z,99737.94
2023-01-19T13:27:59.194Z,99735.97
2023-01-19T13:30:29.797Z,99736.69
2023-01-19T13:33:02.604Z,99732.81
2023-01-19T13:35:31.894Z,99729.75
2023-01-19T13:38:00.843Z,99738.06
2023-01-19T13:40:38.229Z,99736.09
2023-01-19T13:43:14.979Z,99743.88
2023-01-19T13:45:49.867Z,99743.75
2023-01-19T13:48:22.415Z,99743.03
2023-01-19T13:51:03.975Z,99747.22
2023-01-19T13:53:32.535Z,99747.78
2023-01-19T13:56:21.844Z,99748.06
2023-01-19T13:59:09.790Z,99747.91
2023-01-19T14:01:39.713Z,99753.88
2023-01-19T14:04:08.043Z,99758.72
2023-01-19T14:06:42.937Z,99754.16
2023-01-19T14:09:17.870Z,99755.56
2023-01-19T14:11:47.527Z,99757.75
2023-01-19T14:14:26.644Z,99766.75
2023-01-19T14:16:55.805Z,99762.31
2023-01-19T14:19:23.670Z,99763.03
2023-01-19T14:22:04.495Z,99770.66
2023-01-19T14:24:33.293Z,99763.72
2023-01-19T14:27:19.901Z,99759.41
2023-01-19T14:29:50.566Z,99761.09
2023-01-19T14:32:20.630Z,99764.56
2023-01-19T14:34:50.237Z,99762.88
2023-01-19T14:37:25.290Z,99762.75
2023-01-19T14:39:58.775Z,99767.47
2023-01-19T14:42:29.870Z,99766.63
2023-01-19T14:45:01.810Z,99772.72
2023-01-19T14:47:36.741Z,99771.88
2023-01-19T14:50:10.776Z,99772.56
2023-01-19T14:52:43.223Z,99775.88
2023-01-19T14:55:21.786Z,99770.75
2023-01-19T14:57:49.853Z,99780.75
2023-01-19T15:00:20.121Z,99778.63
2023-01-19T15:02:48.340Z,99775.22
2023-01-19T15:05:16.705Z,99778.94
2023-01-19T15:07:47.722Z,99777.91
2023-01-19T15:10:20.679Z,99780.06
2023-01-19T15:12:48.894Z,99788.44
2023-01-19T15:15:18.541Z,99784.97
2023-01-19T15:17:46.758Z,99790.22
2023-01-19T15:20:20.253Z,99788.56
2023-01-19T15:22:49.975Z,99795.78
2023-01-19T15:25:20.363Z,99798.59
2023-01-19T15:27:49.437Z,99791.94
2023-01-19T15:30:20.766Z,99795.13
2023-01-19T15:32:48.677Z,99798.88
2023-01-19T15:35:17.964Z,99800.81
2023-01-19T15:37:46.190Z,99792.22
2023-01-19T15:40:16.523Z,99795.28
2023-01-19T15:42:44.282Z,99791.91
2023-01-19T15:45:33.728Z,99799.16
2023-01-19T15:48:03.850Z,99794.75
2023-01-19T15:50:32.074Z,99797.50
2023-01-19T15:53:00.478Z,99791.41
2023-01-19T15:55:29.841Z,99798.44
2023-01-19T15:58:01.475Z,99802.84
2023-01-19T16:00:30.426Z,99798.94
2023-01-19T16:03:12.783Z,99788.69
2023-01-19T16:05:43.874Z,99801.50
2023-01-19T16:08:12.508Z,99803.59
2023-01-19T16:10:42.368Z,99800.00
2023-01-19T16:13:11.559Z,99802.56
2023-01-19T16:15:40.249Z,99814.78
2023-01-19T16:18:08.051Z,99804.03
2023-01-19T16:20:35.811Z,99813.22
2023-01-19T16:23:14.426Z,99815.84
2023-01-19T16:25:44.913Z,99821.19
2023-01-19T16:28:12.989Z,99821.34
2023-01-19T16:30:40.779Z,99825.59
2023-01-19T16:33:11.556Z,99824.84
2023-01-19T16:35:39.442Z,99817.56
2023-01-19T16:38:07.096Z,99821.75
2023-01-19T16:40:34.768Z,99825.28
2023-01-19T16:43:03.999Z,99820.53
2023-01-19T16:45:31.623Z,99827.66
2023-01-19T16:47:59.361Z,99827.25
2023-01-19T16:50:27.181Z,99825.00
2023-01-19T16:52:57.426Z,99824.91
2023-01-19T16:55:25.131Z,99827.66
2023-01-19T16:57:52.932Z,99830.41
2023-01-19T17:00:22.546Z,99833.75
2023-01-19T17:02:50.343Z,99826.94
2023-01-19T17:05:18.322Z,99831.81
2023-01-19T17:07:46.126Z,99837.84
2023-01-19T17:10:14.061Z,99833.59
2023-01-19T17:12:41.852Z,99837.31
2023-01-19T17:15:10.521Z,99844.09
2023-01-19T17:17:39.575Z,99844.09
2023-01-19T17:20:08.461Z,99836.66
2023-01-19T17:22:36.234Z,99834.69
2023-01-19T17:25:04.268Z,99839.44
2023-01-19T17:27:32.184Z,99834.34
2023-01-19T17:29:59.833Z,99839.53
2023-01-19T17:32:27.525Z,99842.44
2023-01-19T17:34:56.704Z,99838.53
2023-01-19T17:37:24.404Z,99843.97
2023-01-19T17:39:52.184Z,99842.38
2023-01-19T17:42:19.942Z,99843.78
2023-01-19T17:44:47.709Z,99853.94
2023-01-19T17:47:15.447Z,99857.34
2023-01-19T17:49:44.927Z,99853.84
2023-01-19T17:52:14.686Z,99860.50
2023-01-19T17:54:43.723Z,99852.78
2023-01-19T17:57:11.472Z,99855.84
2023-01-19T17:59:40.982Z,99851.66
2023-01-19T18:02:10.478Z,99859.19
2023-01-19T18:04:39.118Z,99859.53
2023-01-19T18:07:07.195Z,99856.44
2023-01-19T18:09:36.391Z,99863.53
2023-01-19T18:12:04.190Z,99864.22
2023-01-19T18:14:31.985Z,99861.88
2023-01-19T18:16:59.760Z,99866.84
2023-01-19T18:19:27.939Z,99864.75
2023-01-19T18:21:56.637Z,99859.06
2023-01-19T18:24:24.394Z,99863.19
2023-01-19T18:26:55.671Z,99866.28
2023-01-19T18:29:23.646Z,99869.00
2023-01-19T18:31:51.406Z,99877.31
2023-01-19T18:34:19.164Z,99867.03
2023-01-19T18:36:46.904Z,99867.03
2023-01-19T18:39:14.595Z,99872.81
2023-01-19T18:41:42.943Z,99878.19
2023-01-19T18:44:12.881Z,99878.59
2023-01-19T18:46:40.675Z,99879.63
2023-01-19T18:49:08.975Z,99881.59
2023-01-19T18:51:36.925Z,99883.25
2023-01-19T18:54:04.775Z,99885.06
2023-01-19T18:56:32.502Z,99883.16
2023-01-19T18:59:00.314Z,99889.19
2023-01-19T19:01:32.962Z,99878.28
2023-01-19T19:04:00.899Z,99888.28
2023-01-19T19:06:29.162Z,99891.88
2023-01-19T19:08:59.212Z,99897.56
2023-01-19T19:11:28.457Z,99888.00
2023-01-19T19:13:58.453Z,99885.31
2023-01-19T19:16:26.338Z,99889.31
2023-01-19T19:18:55.841Z,99893.91
2023-01-19T19:21:25.316Z,99882.19
2023-01-19T19:23:54.816Z,99888.72
2023-01-19T19:26:23.060Z,99895.66
2023-01-19T19:28:50.958Z,99887.81
2023-01-19T19:31:21.138Z,99892.69
2023-01-19T19:33:50.785Z,99897.81
2023-01-19T19:36:21.616Z,99904.44
2023-01-19T19:38:49.541Z,99908.41
2023-01-19T19:41:19.803Z,99911.66
2023-01-19T19:43:47.847Z,99904.56
2023-01-19T19:46:17.747Z,99905.25
2023-01-19T19:48:45.699Z,99903.56
2023-01-19T19:51:19.211Z,99906.28
2023-01-19T19:53:51.401Z,99908.06
2023-01-19T19:56:21.932Z,99908.41
2023-01-19T19:58:50.459Z,99911.16
2023-01-19T20:01:20.404Z,99913.06
2023-01-19T20:03:48.421Z,99909.53
2023-01-19T20:06:20.661Z,99906.28
2023-01-19T20:08:50.302Z,99909.69
2023-01-19T20:11:19.866Z,99911.94
2023-01-19T20:13:47.726Z,99911.50
2023-01-19T20:16:17.783Z,99911.06
2023-01-19T20:18:55.247Z,99921.22
2023-01-19T20:21:25.370Z,99921.38
2023-01-19T20:23:55.606Z,99921.81
2023-01-19T20:26:26.408Z,99920.19
2023-01-19T20:28:54.505Z,99918.31
2023-01-19T20:31:24.447Z,99925.63
2023-01-19T20:33:52.954Z,99926.72
2023-01-19T20:36:22.097Z,99931.75
2023-01-19T20:38:49.835Z,99926.25
2023-01-19T20:41:19.541Z,99928.78
2023-01-19T20:43:47.372Z,99933.03
2023-01-19T20:46:15.276Z,99933.84
2023-01-19T20:48:43.079Z,99934.44
2023-01-19T20:51:13.049Z,99930.00
2023-01-19T20:53:42.243Z,99938.34
2023-01-19T20:56:12.874Z,99933.31
2023-01-19T20:58:42.450Z,99938.34
2023-01-19T21:01:11.751Z,99933.78
2023-01-19T21:03:39.865Z,99939.78
2023-01-19T21:06:08.124Z,99943.78
2023-01-19T21:08:36.422Z,99941.69
2023-01-19T21:11:04.873Z,99948.66
2023-01-19T21:13:32.955Z,99948.78
2023-01-19T21:16:02.832Z,99955.06
2023-01-19T21:18:30.524Z,99952.41
2023-01-19T21:20:58.565Z,99954.50
2023-01-19T21:23:27.332Z,99953.47
2023-01-19T21:25:56.871Z,99958.94
2023-01-19T21:28:24.937Z,99959.91
2023-01-19T21:30:53.906Z,99971.50
2023-01-19T21:33:23.811Z,99965.75
2023-01-19T21:35:52.345Z,99967.03
2023-01-19T21:38:20.800Z,99970.72
2023-01-19T21:40:48.522Z,99965.97
2023-01-19T21:43:20.017Z,99968.13
2023-01-19T21:45:49.386Z,99979.03
2023-01-19T21:48:17.387Z,99980.47
2023-01-19T21:50:46.524Z,99982.88
2023-01-19T21:53:15.637Z,99985.25
2023-01-19T21:55:45.651Z,99987.97
2023-01-19T21:58:13.365Z,99995.22
2023-01-19T22:00:41.183Z,99992.88
2023-01-19T22:03:09.132Z,99988.94
2023-01-19T22:05:37.530Z,99990.72
2023-01-19T22:08:06.985Z,99989.97
2023-01-19T22:10:36.757Z,99986.59
2023-01-19T22:13:06.603Z,99986.81
2023-01-19T22:15:34.477Z,99987.41
2023-01-19T22:18:02.240Z,99996.75
2023-01-19T22:20:29.941Z,100003.84
2023-01-19T22:22:57.822Z,100016.53
2023-01-19T22:25:27.903Z,100004.34
2023-01-19T22:27:55.981Z,100009.38
2023-01-19T22:30:23.776Z,100010.69
2023-01-19T22:32:53.184Z,100014.75
2023-01-19T22:35:21.319Z,100010.84
2023-01-19T22:37:49.121Z,100013.47
2023-01-19T22:40:17.293Z,100016.56
2023-01-19T22:42:48.110Z,100018.00
2023-01-19T22:45:16.180Z,100020.84
2023-01-19T22:47:44.004Z,100020.72
2023-01-19T22:50:11.899Z,100018.91
2023-01-19T22:52:39.527Z,100020.72
2023-01-19T22:55:07.720Z,100023.59
2023-01-19T22:57:36.575Z,100023.81
2023-01-19T23:00:08.888Z,100019.41
2023-01-19T23:02:36.773Z,100013.91
2023-01-19T23:05:04.947Z,100008.91
2023-01-19T23:07:32.689Z,100015.00
2023-01-19T23:10:00.420Z,100011.53
2023-01-19T23:12:28.146Z,100010.47
2023-01-19T23:14:55.872Z,100019.31
2023-01-19T23:17:25.020Z,100013.72
2023-01-19T23:19:52.742Z,100016.00
2023-01-19T23:22:20.421Z,100021.00
2023-01-19T23:24:49.093Z,100022.91
2023-01-19T23:27:17.866Z,100021.84
2023-01-19T23:29:46.452Z,100020.19
2023-01-19T23:32:14.524Z,100025.69
2023-01-19T23:34:44.142Z,100023.88
2023-01-19T23:37:11.803Z,100027.56
2023-01-19T23:39:39.907Z,100033.31
2023-01-19T23:42:08.844Z,100036.78
2023-01-19T23:44:36.778Z,100039.63
2023-01-19T23:47:04.557Z,100035.59
2023-01-19T23:49:32.217Z,100045.09
2023-01-19T23:52:01.482Z,100038.66
2023-01-19T23:54:29.211Z,100037.84
2023-01-19T23:56:57.494Z,100047.63
2023-01-19T23:59:25.277Z,100042.59
